Weather - Helsinki Query any day in the database

Current weather  

Weather data for a selected day (2006-01-01 -2020-10-31)
Enter date:     <-     scroll days         ->
day curves
Low temperature°C -18.023:50
High temperature°C -12.016:20
Low wind chill°C -25.109:20
Average temperature°C -15.4 
High wind speed (10 min) m/s 4.001:50
Low pressurehPa 1033.006:20
High pressurehPa 1035.023:50
Low R.H% 7213:20
High R.H% 9202:50
Day weather data as a table
Date Time Temp
°C
Chill
°C
Pressure
hPA
Wind
m/s
Hum
%
Precip
mm
2009-01-31 23:50:00 -18.0  -20.8  1035.0 1.0 77 -
2009-01-31 23:20:00 -18.0  -20.8  1035.0 1.0 84 -
2009-01-31 22:50:00 -18.0  -20.8  1035.0 1.0 84 -
2009-01-31 22:20:00 -18.0  -20.8  1035.0 1.0 77 -
2009-01-31 21:50:00 -17.0  -19.7  1034.0 1.0 84 -
2009-01-31 21:20:00 -16.0  -21.1  1035.0 2.0 84 -
2009-01-31 20:50:00 -16.0  -18.6  1035.0 1.0 91 -
2009-01-31 20:20:00 -15.0  -21.5  1035.0 3.0 84 -
2009-01-31 19:50:00 -15.0  -21.5  1035.0 3.0 84 -
2009-01-31 19:20:00 -15.0  -21.5  1034.0 3.0 84 -
2009-01-31 18:50:00 -17.0  -23.9  1034.0 3.0 84 -
2009-01-31 18:20:00 -16.0  -21.1  1034.0 2.0 84 -
2009-01-31 17:50:00 -14.0  -16.4  1034.0 1.0 84 -
2009-01-31 17:20:00 -14.0  -16.4  1034.0 1.0 84 -
2009-01-31 16:50:00 -15.0  -21.5  1034.0 3.0 84 -
2009-01-31 16:20:00 -12.0  -17.9  1034.0 3.0 78 -
2009-01-31 15:50:00 -14.0  -20.3  1034.0 3.0 84 -
2009-01-31 15:20:00 -13.0  -19.1  1034.0 3.0 78 -
2009-01-31 14:50:00 -12.0  -16.5  1034.0 2.0 78 -
2009-01-31 14:20:00 -12.0  -17.9  1034.0 3.0 78 -
2009-01-31 13:50:00 -12.0  -17.9  1034.0 3.0 78 -
2009-01-31 13:20:00 -12.0  -16.5  1034.0 2.0 72 -
2009-01-31 12:50:00 -14.0  -20.3  1034.0 3.0 84 -
2009-01-31 11:50:00 -14.0  -18.8  1034.0 2.0 77 -
2009-01-31 11:20:00 -15.0  -20.0  1034.0 2.0 77 -
2009-01-31 10:50:00 -16.0  -22.7  1034.0 3.0 84 -
2009-01-31 10:20:00 -17.0  -22.3  1034.0 2.0 84 -
2009-01-31 09:50:00 -17.0  -22.3  1034.0 2.0 84 -
2009-01-31 09:20:00 -18.0  -25.1  1034.0 3.0 84 -
2009-01-31 08:50:00 -18.0  -25.1  1034.0 3.0 84 -
2009-01-31 08:20:00 -18.0  -20.8  1034.0 1.0 84 -
2009-01-31 07:50:00 -18.0  -20.8  1034.0 1.0 84 -
2009-01-31 07:20:00 -18.0  -23.4  1034.0 2.0 84 -
2009-01-31 06:50:00 -17.0  -19.7  1034.0 1.0 84 -
2009-01-31 06:20:00 -17.0  -19.7  1033.0 1.0 84 -
2009-01-31 05:50:00 -16.0  -18.6  1033.0 1.0 84 -
2009-01-31 05:20:00 -17.0  -22.3  1033.0 2.0 84 -
2009-01-31 04:50:00 -17.0  -22.3  1033.0 2.0 84 -
2009-01-31 04:20:00 -15.0  -21.5  1033.0 3.0 84 -
2009-01-31 03:50:00 -15.0  -21.5  1033.0 3.0 84 -
2009-01-31 03:20:00 -15.0  -21.5  1033.0 3.0 84 -
2009-01-31 02:50:00 -15.0  -21.5  1033.0 3.0 92 -
2009-01-31 02:20:00 -15.0  -21.5  1033.0 3.0 84 -
2009-01-31 01:50:00 -14.0  -21.5  1033.0 4.0 84 -
2009-01-31 01:20:00 -13.0  -19.1  1033.0 3.0 84 -
2009-01-31 00:50:00 -13.0  -19.1  1033.0 3.0 84 -
2009-01-31 00:20:00 -13.0  -19.1  1033.0 3.0 92 -
Unit conversions: